Time;durP1;ratioP1;P1;durP2;ratioP2;P2;SDS_P1;SDS_P2;PMS_P1;PMS_P2;Temp;Humidity;BMP_temperature;BMP_pressure;BME280_temperature;BME280_humidity;BME280_pressure;Samples;Min_cycle;Max_cycle;Signal;HPM_P1;HPM_P2
2021/05/09 00:01:58;;;;;;;8.57;6.47;;;9.90;98.30;;;;;;4107220;28;20515;-80
2021/05/09 00:04:00;;;;;;;6.87;5.60;;;9.90;98.30;;;;;;4114117;28;20574;-81
2021/05/09 00:06:03;;;;;;;8.13;6.40;;;9.90;98.30;;;;;;4113076;28;20860;-81
2021/05/09 00:08:05;;;;;;;6.40;5.80;;;9.90;98.30;;;;;;4113596;28;20506;-80
2021/05/09 00:10:10;;;;;;;6.30;5.70;;;9.90;98.30;;;;;;4114813;28;20490;-80
2021/05/09 00:12:14;;;;;;;6.97;6.27;;;9.90;98.30;;;;;;4115525;28;20504;-79
2021/05/09 00:14:16;;;;;;;6.13;5.53;;;9.80;98.30;;;;;;4119690;28;20491;-78
2021/05/09 00:16:17;;;;;;;6.63;5.83;;;9.90;98.30;;;;;;4120167;28;20499;-78
2021/05/09 00:18:20;;;;;;;6.83;5.53;;;9.90;98.30;;;;;;4117050;28;20700;-78
2021/05/09 00:20:22;;;;;;;7.13;6.00;;;9.90;98.30;;;;;;4112987;28;20491;-79
2021/05/09 00:22:24;;;;;;;6.37;5.70;;;9.90;98.30;;;;;;4114725;28;20470;-79
2021/05/09 00:24:27;;;;;;;6.27;5.67;;;10.00;98.30;;;;;;4114515;28;20498;-79
2021/05/09 00:26:29;;;;;;;6.83;5.93;;;10.00;98.30;;;;;;4114191;28;20516;-79
2021/05/09 00:28:31;;;;;;;5.77;5.27;;;10.00;98.30;;;;;;4112547;28;20500;-79
2021/05/09 00:30:33;;;;;;;7.33;5.80;;;10.00;98.30;;;;;;4115658;28;20509;-79
2021/05/09 00:32:35;;;;;;;9.17;5.37;;;10.10;98.30;;;;;;4115213;28;20506;-79
2021/05/09 00:34:37;;;;;;;7.93;5.90;;;10.00;98.30;;;;;;4114081;28;20491;-79
2021/05/09 00:36:39;;;;;;;5.90;5.30;;;10.10;98.30;;;;;;4121000;28;20488;-78
2021/05/09 00:38:41;;;;;;;7.23;5.77;;;10.10;98.30;;;;;;4112634;28;20507;-79
2021/05/09 00:40:43;;;;;;;8.57;5.53;;;10.20;98.30;;;;;;4109780;28;20466;-80
2021/05/09 00:42:45;;;;;;;6.40;5.80;;;10.20;98.30;;;;;;4114118;28;20466;-80
2021/05/09 00:44:47;;;;;;;7.07;5.43;;;10.10;98.30;;;;;;4112587;28;20500;-79
2021/05/09 00:46:49;;;;;;;5.90;5.30;;;10.10;98.30;;;;;;4113324;28;20593;-79
2021/05/09 00:48:51;;;;;;;6.53;5.53;;;10.10;98.30;;;;;;4112773;28;20498;-79
2021/05/09 00:50:54;;;;;;;6.17;5.57;;;10.10;98.30;;;;;;4115113;28;20522;-79
2021/05/09 00:52:58;;;;;;;5.97;5.40;;;10.10;98.30;;;;;;4115670;28;20928;-79
2021/05/09 00:55:03;;;;;;;6.17;5.57;;;10.10;98.30;;;;;;4114002;28;20467;-79
2021/05/09 00:57:06;;;;;;;5.50;5.00;;;10.10;98.30;;;;;;4113996;28;20488;-79
2021/05/09 00:59:09;;;;;;;5.60;5.10;;;10.10;98.30;;;;;;4113762;28;20491;-79
2021/05/09 01:01:13;;;;;;;7.10;6.40;;;10.20;98.30;;;;;;4115328;28;20496;-79
2021/05/09 01:03:15;;;;;;;7.13;5.20;;;10.20;98.30;;;;;;4113764;28;20491;-79
2021/05/09 01:05:18;;;;;;;6.77;5.53;;;10.20;98.30;;;;;;4113266;28;20483;-79
2021/05/09 01:07:21;;;;;;;5.50;5.00;;;10.10;98.30;;;;;;4110188;28;20496;-79
2021/05/09 01:09:24;;;;;;;6.20;5.60;;;10.10;98.30;;;;;;4113757;28;20499;-79
2021/05/09 01:11:26;;;;;;;6.23;5.70;;;10.10;98.30;;;;;;4112816;28;20909;-79
2021/05/09 01:13:32;;;;;;;6.80;6.10;;;10.10;98.30;;;;;;4111158;28;20496;-79
2021/05/09 01:15:34;;;;;;;7.33;5.67;;;10.20;98.30;;;;;;4113813;28;20488;-79
2021/05/09 01:17:36;;;;;;;6.23;5.63;;;10.20;98.30;;;;;;4112784;28;20500;-79
2021/05/09 01:19:39;;;;;;;8.83;6.13;;;10.20;98.30;;;;;;4113479;28;20502;-78
2021/05/09 01:21:42;;;;;;;6.20;5.60;;;10.20;98.30;;;;;;4111974;28;20474;-79
2021/05/09 01:23:44;;;;;;;7.33;6.63;;;10.20;98.30;;;;;;4113396;28;20562;-79
2021/05/09 01:25:46;;;;;;;6.67;6.00;;;10.20;98.30;;;;;;4112664;28;20545;-79
2021/05/09 01:27:48;;;;;;;6.47;5.80;;;10.30;98.30;;;;;;4112802;28;20575;-79
2021/05/09 01:29:51;;;;;;;5.90;5.30;;;10.30;98.30;;;;;;4114038;28;20488;-79
2021/05/09 01:31:53;;;;;;;5.57;5.13;;;10.30;98.30;;;;;;4111651;28;20481;-79
2021/05/09 01:33:55;;;;;;;6.73;5.70;;;10.30;98.30;;;;;;4113159;28;20499;-79
2021/05/09 01:35:58;;;;;;;6.20;5.10;;;10.30;98.30;;;;;;4112059;28;20498;-79
2021/05/09 01:38:01;;;;;;;6.33;5.73;;;10.30;98.30;;;;;;4113675;28;20515;-79
2021/05/09 01:40:05;;;;;;;6.40;5.00;;;10.30;98.30;;;;;;4113242;28;20492;-79
2021/05/09 01:42:07;;;;;;;6.33;4.73;;;10.40;98.30;;;;;;4112694;28;20499;-79
2021/05/09 01:44:09;;;;;;;6.70;5.20;;;10.40;98.30;;;;;;4111207;28;20567;-79
2021/05/09 01:46:10;;;;;;;5.57;5.07;;;10.40;98.30;;;;;;4115589;28;20539;-79
2021/05/09 01:48:12;;;;;;;5.97;5.37;;;10.40;98.30;;;;;;4112636;28;20480;-79
2021/05/09 01:50:16;;;;;;;5.40;4.90;;;10.50;98.30;;;;;;4109535;28;20487;-79
2021/05/09 01:52:19;;;;;;;5.83;5.17;;;10.50;98.30;;;;;;4109967;28;20491;-79
2021/05/09 01:54:21;;;;;;;5.97;5.43;;;10.50;98.30;;;;;;4112033;28;20542;-79
2021/05/09 01:56:23;;;;;;;5.43;4.87;;;10.50;98.30;;;;;;4110844;28;20494;-79
2021/05/09 01:58:25;;;;;;;5.10;4.60;;;10.60;98.30;;;;;;4110684;28;20845;-79
2021/05/09 02:00:27;;;;;;;5.73;5.23;;;10.50;98.30;;;;;;4110342;28;20499;-79
2021/05/09 02:02:29;;;;;;;5.57;4.97;;;10.50;98.30;;;;;;4111277;28;20880;-79
2021/05/09 02:04:31;;;;;;;5.63;5.10;;;10.60;98.30;;;;;;4113348;28;20499;-79
2021/05/09 02:06:33;;;;;;;5.83;5.10;;;10.60;98.30;;;;;;4108343;28;20519;-79
2021/05/09 02:08:35;;;;;;;5.50;5.00;;;10.60;98.30;;;;;;4110970;28;20500;-79
2021/05/09 02:10:37;;;;;;;7.73;5.63;;;10.60;98.30;;;;;;4113166;28;20496;-79
2021/05/09 02:12:39;;;;;;;6.40;5.40;;;10.60;98.30;;;;;;4111530;28;20599;-79
2021/05/09 02:14:42;;;;;;;8.00;5.70;;;10.60;98.30;;;;;;4111547;28;20527;-79
2021/05/09 02:16:43;;;;;;;6.10;5.50;;;10.60;98.30;;;;;;4108595;28;20492;-79
2021/05/09 02:18:45;;;;;;;6.27;5.27;;;10.70;98.30;;;;;;4111541;28;20848;-79
2021/05/09 02:20:48;;;;;;;7.47;5.00;;;10.60;98.30;;;;;;4108645;28;20563;-79
2021/05/09 02:22:50;;;;;;;5.50;5.00;;;10.70;98.30;;;;;;4113115;28;20499;-79
2021/05/09 02:24:52;;;;;;;6.67;5.37;;;10.70;98.30;;;;;;4110640;28;20507;-79
2021/05/09 02:26:55;;;;;;;6.10;5.10;;;10.70;98.30;;;;;;4111871;28;20497;-79
2021/05/09 02:28:57;;;;;;;6.77;5.20;;;10.70;98.30;;;;;;4111313;28;20488;-79
2021/05/09 02:30:58;;;;;;;5.40;4.90;;;10.80;98.30;;;;;;4111611;28;20611;-79
2021/05/09 02:33:01;;;;;;;6.63;5.10;;;10.80;98.30;;;;;;4108894;28;21016;-79
2021/05/09 02:35:03;;;;;;;5.33;4.83;;;10.80;98.30;;;;;;4110803;28;20487;-79
2021/05/09 02:37:06;;;;;;;5.90;4.90;;;10.80;98.30;;;;;;4111197;28;20484;-79
2021/05/09 02:39:07;;;;;;;6.00;5.07;;;10.90;98.30;;;;;;4111864;28;20496;-79
2021/05/09 02:41:10;;;;;;;6.57;4.97;;;10.90;98.30;;;;;;4113045;28;20492;-79
2021/05/09 02:43:16;;;;;;;6.03;4.87;;;10.90;98.30;;;;;;4112911;28;20506;-78
2021/05/09 02:45:18;;;;;;;4.80;4.40;;;10.90;98.30;;;;;;4111157;28;20495;-79
2021/05/09 02:47:29;;;;;;;5.93;5.30;;;10.90;98.30;;;;;;4111114;28;20520;-79
2021/05/09 02:49:55;;;;;;;5.60;5.10;;;10.90;98.30;;;;;;4112846;28;21057;-80
2021/05/09 02:51:57;;;;;;;5.17;4.60;;;10.90;98.30;;;;;;4104296;28;20494;-80
2021/05/09 02:53:58;;;;;;;6.73;5.40;;;10.90;98.30;;;;;;4112980;28;20500;-79
2021/05/09 02:56:00;;;;;;;6.40;4.80;;;11.00;98.30;;;;;;4112412;28;20492;-79
2021/05/09 02:58:02;;;;;;;5.40;4.90;;;11.00;98.30;;;;;;4118378;28;21053;-79
2021/05/09 03:00:06;;;;;;;5.30;4.73;;;10.90;98.30;;;;;;4110112;28;20496;-79
2021/05/09 03:02:08;;;;;;;5.40;4.90;;;10.90;98.30;;;;;;4110915;28;20496;-79
2021/05/09 03:04:10;;;;;;;5.20;4.23;;;10.90;98.30;;;;;;4112106;28;20893;-79
2021/05/09 03:06:12;;;;;;;6.33;4.83;;;10.90;98.30;;;;;;4110616;28;20496;-79
2021/05/09 03:08:14;;;;;;;5.10;4.60;;;10.90;98.30;;;;;;4109568;28;21089;-79
2021/05/09 03:10:16;;;;;;;5.37;4.87;;;11.00;98.30;;;;;;4110357;28;20496;-81
2021/05/09 03:12:18;;;;;;;5.60;5.00;;;11.00;98.30;;;;;;4110562;28;20500;-79
2021/05/09 03:14:20;;;;;;;5.20;4.67;;;10.90;98.30;;;;;;4111485;28;21009;-80
2021/05/09 03:16:23;;;;;;;5.20;4.70;;;10.90;98.30;;;;;;4110562;28;20869;-80
2021/05/09 03:18:24;;;;;;;5.70;4.60;;;10.90;98.30;;;;;;4110373;28;21008;-80
2021/05/09 03:20:26;;;;;;;6.17;4.80;;;10.90;98.30;;;;;;4109207;28;21012;-80
2021/05/09 03:22:28;;;;;;;5.03;4.53;;;11.00;98.30;;;;;;4112025;28;20491;-80
2021/05/09 03:24:31;;;;;;;5.10;4.60;;;11.00;98.30;;;;;;4110263;28;20579;-80
2021/05/09 03:26:33;;;;;;;6.03;5.10;;;11.00;98.30;;;;;;4110332;28;20886;-80
2021/05/09 03:28:35;;;;;;;7.03;4.80;;;11.10;98.30;;;;;;4110679;28;20844;-80
2021/05/09 03:30:37;;;;;;;5.27;4.70;;;11.10;98.30;;;;;;4111997;28;20972;-80
2021/05/09 03:32:40;;;;;;;5.27;4.70;;;11.10;98.30;;;;;;4110592;28;20495;-80
2021/05/09 03:34:42;;;;;;;6.17;4.93;;;11.10;98.30;;;;;;4111063;28;20573;-80
2021/05/09 03:36:44;;;;;;;5.33;4.80;;;11.20;98.30;;;;;;4111610;28;20496;-80
2021/05/09 03:38:45;;;;;;;6.93;4.87;;;11.20;98.30;;;;;;4110717;28;21080;-80
2021/05/09 03:40:47;;;;;;;7.67;4.53;;;11.20;98.30;;;;;;4109754;28;20499;-80
2021/05/09 03:42:49;;;;;;;5.60;4.50;;;11.20;98.30;;;;;;4110732;28;20500;-80
2021/05/09 03:44:51;;;;;;;5.00;4.50;;;11.20;98.30;;;;;;4112882;28;20492;-80
2021/05/09 03:46:53;;;;;;;5.20;4.70;;;11.20;98.30;;;;;;4110650;28;20496;-80
2021/05/09 03:48:55;;;;;;;5.17;4.67;;;11.30;98.30;;;;;;4111458;28;20495;-80
2021/05/09 03:50:57;;;;;;;5.27;4.80;;;11.30;98.30;;;;;;4113172;28;21139;-80
2021/05/09 03:52:59;;;;;;;6.13;4.40;;;11.40;98.30;;;;;;4110327;28;20495;-80
2021/05/09 03:55:01;;;;;;;5.10;4.60;;;11.40;98.30;;;;;;4112519;28;21104;-80
2021/05/09 03:57:03;;;;;;;5.37;4.87;;;11.40;98.30;;;;;;4110995;28;20483;-80
2021/05/09 03:59:05;;;;;;;5.80;5.20;;;11.40;98.30;;;;;;4109468;28;20502;-79
2021/05/09 04:01:07;;;;;;;6.33;4.60;;;11.50;98.30;;;;;;4112374;28;20488;-80
2021/05/09 04:03:19;;;;;;;5.27;4.60;;;11.50;98.30;;;;;;4112745;28;20492;-79
2021/05/09 04:05:22;;;;;;;5.20;4.70;;;11.40;98.30;;;;;;4110845;28;20511;-80
2021/05/09 04:07:24;;;;;;;5.70;4.67;;;11.40;98.30;;;;;;4112779;28;20924;-80
2021/05/09 04:09:26;;;;;;;5.30;4.80;;;11.40;98.30;;;;;;4115031;28;20567;-80
2021/05/09 04:11:28;;;;;;;5.23;4.73;;;11.40;98.30;;;;;;4110039;28;20610;-80
2021/05/09 04:13:42;;;;;;;4.93;4.33;;;11.40;98.30;;;;;;4110422;28;20564;-80
2021/05/09 04:15:44;;;;;;;7.97;4.73;;;11.40;98.30;;;;;;4110559;28;20502;-80
2021/05/09 04:17:46;;;;;;;5.13;4.70;;;11.40;98.30;;;;;;4113653;28;20527;-80
2021/05/09 04:19:48;;;;;;;4.43;4.03;;;11.30;98.30;;;;;;4113559;28;21017;-80
2021/05/09 04:21:50;;;;;;;6.10;4.47;;;11.30;98.30;;;;;;4113823;28;20496;-80
2021/05/09 04:23:52;;;;;;;5.77;5.17;;;11.40;98.30;;;;;;4112856;28;21034;-80
2021/05/09 04:25:54;;;;;;;5.20;4.43;;;11.40;98.30;;;;;;4113068;28;20518;-80
2021/05/09 04:27:56;;;;;;;5.13;4.43;;;11.40;98.30;;;;;;4114759;28;20479;-80
2021/05/09 04:29:58;;;;;;;6.03;4.67;;;11.50;98.30;;;;;;4114126;28;20492;-80
2021/05/09 04:32:00;;;;;;;6.87;4.93;;;11.40;98.30;;;;;;4112386;28;20492;-80
2021/05/09 04:34:02;;;;;;;5.40;4.20;;;11.40;98.30;;;;;;4113396;28;20519;-80
2021/05/09 04:36:05;;;;;;;4.73;4.23;;;11.50;98.30;;;;;;4112210;28;20547;-80
2021/05/09 04:38:09;;;;;;;5.10;4.60;;;11.50;98.30;;;;;;4113605;28;20500;-80
2021/05/09 04:40:12;;;;;;;5.93;5.33;;;11.50;98.30;;;;;;4114605;28;20492;-80
2021/05/09 04:42:14;;;;;;;5.37;4.47;;;11.60;98.30;;;;;;4114461;28;20496;-80
2021/05/09 04:44:16;;;;;;;5.10;4.60;;;11.60;98.30;;;;;;4111852;28;20544;-80
2021/05/09 04:46:17;;;;;;;8.20;4.73;;;11.60;98.30;;;;;;4114317;28;20496;-80
2021/05/09 04:48:19;;;;;;;5.80;4.67;;;11.70;98.30;;;;;;4115711;28;20495;-80
2021/05/09 04:50:21;;;;;;;5.03;4.40;;;11.70;98.30;;;;;;4113353;28;20500;-80
2021/05/09 04:52:23;;;;;;;7.63;4.90;;;11.70;98.30;;;;;;4114145;28;20896;-80
2021/05/09 04:54:29;;;;;;;4.80;4.30;;;11.70;98.30;;;;;;4114066;28;20496;-80
2021/05/09 04:56:31;;;;;;;6.10;4.40;;;11.80;98.30;;;;;;4113892;28;20479;-81
2021/05/09 04:58:35;;;;;;;4.70;4.30;;;11.70;98.30;;;;;;4113525;28;20502;-81
2021/05/09 05:00:37;;;;;;;6.63;4.83;;;11.90;98.30;;;;;;4114618;28;21234;-80
2021/05/09 05:02:39;;;;;;;9.73;4.43;;;11.90;98.30;;;;;;4114595;28;20504;-80
2021/05/09 05:04:41;;;;;;;5.27;4.77;;;12.00;98.30;;;;;;4114827;28;20860;-80
2021/05/09 05:06:43;;;;;;;5.13;4.63;;;12.00;98.30;;;;;;4113320;28;20936;-80
2021/05/09 05:08:45;;;;;;;4.70;4.30;;;12.00;98.30;;;;;;4113078;28;20506;-80
2021/05/09 05:10:49;;;;;;;6.87;4.60;;;12.10;98.30;;;;;;4347286;23;20507;-84
2021/05/09 05:12:51;;;;;;;4.93;4.40;;;12.00;98.30;;;;;;4136693;28;20483;-85
2021/05/09 05:14:53;;;;;;;5.00;4.50;;;12.10;98.30;;;;;;4135943;28;20857;-85
2021/05/09 05:16:55;;;;;;;7.63;4.70;;;12.10;98.30;;;;;;4136928;28;20497;-85
2021/05/09 05:18:57;;;;;;;5.33;4.60;;;12.20;98.30;;;;;;4137170;28;21098;-85
2021/05/09 05:21:02;;;;;;;5.90;5.10;;;12.20;98.30;;;;;;4132164;28;20585;-84
2021/05/09 05:23:04;;;;;;;5.77;4.73;;;12.20;98.30;;;;;;4126956;28;20487;-85
2021/05/09 05:25:07;;;;;;;5.20;4.70;;;12.30;98.30;;;;;;4128385;28;20501;-84
2021/05/09 05:27:10;;;;;;;6.17;4.17;;;12.30;98.30;;;;;;4126414;28;21134;-85
2021/05/09 05:29:12;;;;;;;5.20;4.70;;;12.40;98.30;;;;;;4128019;28;20881;-85
2021/05/09 05:31:14;;;;;;;5.17;4.67;;;12.40;98.30;;;;;;4129412;28;20490;-85
2021/05/09 05:33:27;;;;;;;5.03;4.10;;;12.60;98.30;;;;;;4123478;28;20996;-85
2021/05/09 05:35:29;;;;;;;5.00;4.50;;;12.60;98.30;;;;;;4127546;28;20573;-85
2021/05/09 05:37:31;;;;;;;5.17;4.67;;;12.60;98.30;;;;;;4126515;28;20539;-84
2021/05/09 05:39:33;;;;;;;6.10;4.90;;;12.70;98.30;;;;;;4127722;28;20932;-84
2021/05/09 05:41:34;;;;;;;6.40;4.50;;;12.70;98.30;;;;;;4129200;28;20557;-85
2021/05/09 05:43:37;;;;;;;4.50;4.10;;;12.80;98.30;;;;;;4129854;28;20570;-84
2021/05/09 05:45:40;;;;;;;4.73;4.30;;;12.80;98.30;;;;;;4127968;28;20955;-85
2021/05/09 05:47:42;;;;;;;5.00;4.43;;;12.70;98.30;;;;;;4125840;28;21117;-85
2021/05/09 05:49:43;;;;;;;6.07;4.83;;;12.80;98.30;;;;;;4128149;28;20589;-84
2021/05/09 05:51:45;;;;;;;4.70;4.03;;;12.90;98.30;;;;;;4130033;28;20486;-85
2021/05/09 05:53:48;;;;;;;4.50;4.10;;;13.00;98.30;;;;;;4128318;28;20826;-85
2021/05/09 05:55:51;;;;;;;4.73;4.10;;;13.00;98.30;;;;;;4127530;28;20487;-85
2021/05/09 05:57:52;;;;;;;5.67;4.40;;;13.10;98.30;;;;;;4126918;28;20977;-84
2021/05/09 05:59:55;;;;;;;5.00;4.00;;;13.10;98.30;;;;;;4127864;28;20494;-84
2021/05/09 06:01:57;;;;;;;4.30;3.90;;;13.20;98.30;;;;;;4123321;28;21172;-84
2021/05/09 06:03:59;;;;;;;4.40;4.00;;;13.40;98.30;;;;;;4128537;28;20525;-84
2021/05/09 06:06:01;;;;;;;5.60;4.10;;;13.40;98.30;;;;;;4127053;28;20578;-85
2021/05/09 06:08:03;;;;;;;4.77;4.03;;;13.50;98.30;;;;;;4126224;28;20509;-85
2021/05/09 06:10:05;;;;;;;6.00;4.13;;;13.60;98.30;;;;;;4126295;28;20502;-84
2021/05/09 06:12:08;;;;;;;6.00;4.00;;;13.80;98.30;;;;;;4129715;28;20530;-85
2021/05/09 06:14:10;;;;;;;5.07;4.13;;;13.80;98.30;;;;;;4129701;28;20531;-85
2021/05/09 06:16:26;;;;;;;4.87;3.80;;;13.90;98.30;;;;;;4126356;28;20490;-85
2021/05/09 06:18:28;;;;;;;3.90;3.60;;;14.00;98.30;;;;;;4127280;28;20890;-85
2021/05/09 06:20:30;;;;;;;4.70;4.00;;;14.10;98.30;;;;;;4128192;28;20882;-85
2021/05/09 06:22:32;;;;;;;4.10;3.70;;;14.20;98.30;;;;;;4125367;28;20491;-85
2021/05/09 06:24:34;;;;;;;6.23;3.87;;;14.20;98.30;;;;;;4126839;28;20487;-85
2021/05/09 06:26:36;;;;;;;4.70;4.27;;;14.30;98.30;;;;;;4125907;28;20495;-85
2021/05/09 06:28:38;;;;;;;7.30;4.00;;;14.40;98.30;;;;;;4127669;28;20495;-85
2021/05/09 06:30:41;;;;;;;4.77;3.90;;;14.50;98.30;;;;;;4128574;28;20498;-84
2021/05/09 06:32:44;;;;;;;5.00;3.90;;;14.60;98.30;;;;;;4128667;28;20491;-84
2021/05/09 06:34:46;;;;;;;4.80;4.40;;;14.60;98.30;;;;;;4126849;28;20501;-84
2021/05/09 06:36:48;;;;;;;4.40;3.83;;;14.70;98.30;;;;;;4126766;28;20495;-85
2021/05/09 06:38:50;;;;;;;4.47;3.47;;;14.80;98.30;;;;;;4125755;28;20502;-84
2021/05/09 06:40:52;;;;;;;3.60;3.30;;;14.90;98.30;;;;;;4127024;28;20579;-85
2021/05/09 06:42:57;;;;;;;3.90;3.50;;;14.90;98.30;;;;;;4123666;28;20557;-85
2021/05/09 06:45:03;;;;;;;6.50;4.23;;;15.00;98.30;;;;;;4123367;28;20998;-86
2021/05/09 06:47:05;;;;;;;4.00;3.70;;;15.00;98.30;;;;;;4127763;28;20541;-86
2021/05/09 06:49:08;;;;;;;4.13;3.73;;;15.20;98.30;;;;;;4126250;28;20482;-84
2021/05/09 06:51:16;;;;;;;7.30;3.77;;;15.30;98.30;;;;;;4128048;28;20594;-84
2021/05/09 06:53:18;;;;;;;4.03;3.50;;;15.30;98.30;;;;;;4127094;28;20570;-85
2021/05/09 06:55:20;;;;;;;4.50;3.83;;;15.40;98.30;;;;;;4126963;28;20502;-85
2021/05/09 06:57:22;;;;;;;5.03;4.03;;;15.60;98.30;;;;;;4126833;28;20494;-84
2021/05/09 06:59:24;;;;;;;6.33;3.50;;;15.70;98.30;;;;;;4128419;28;20497;-84
2021/05/09 07:01:27;;;;;;;5.53;3.57;;;15.80;98.30;;;;;;4128957;28;20878;-84
2021/05/09 07:03:30;;;;;;;4.33;3.90;;;15.90;98.30;;;;;;4129823;28;20509;-84
2021/05/09 07:05:36;;;;;;;3.80;3.40;;;15.90;98.30;;;;;;4127920;28;20499;-86
2021/05/09 07:07:46;;;;;;;4.77;3.90;;;16.00;98.30;;;;;;4128826;28;20522;-85
2021/05/09 07:09:48;;;;;;;3.93;3.60;;;16.10;98.30;;;;;;4129235;28;20860;-85
2021/05/09 07:11:50;;;;;;;3.80;3.50;;;16.20;98.30;;;;;;4129266;28;20494;-85
2021/05/09 07:13:52;;;;;;;3.93;3.50;;;16.30;98.30;;;;;;4126396;28;20860;-86
2021/05/09 07:15:56;;;;;;;4.13;3.67;;;16.30;98.30;;;;;;4128945;28;20483;-85
2021/05/09 07:18:03;;;;;;;5.70;3.80;;;16.20;98.30;;;;;;4128781;28;20479;-85
2021/05/09 07:20:06;;;;;;;4.43;4.03;;;16.40;98.30;;;;;;4127787;28;20602;-85
2021/05/09 07:22:12;;;;;;;4.10;3.70;;;16.50;98.30;;;;;;4127342;28;21135;-85
2021/05/09 07:24:14;;;;;;;3.77;3.43;;;16.60;98.30;;;;;;4128987;28;20553;-84
2021/05/09 07:26:16;;;;;;;5.53;3.67;;;16.70;98.30;;;;;;4129038;28;20497;-84
2021/05/09 07:28:20;;;;;;;4.23;3.83;;;16.80;98.30;;;;;;4127716;28;20722;-84
2021/05/09 07:30:22;;;;;;;5.10;4.03;;;16.80;98.30;;;;;;4131101;28;21015;-84
2021/05/09 07:32:24;;;;;;;4.10;3.70;;;16.90;98.30;;;;;;4130941;28;20501;-84
2021/05/09 07:34:27;;;;;;;3.77;3.37;;;17.00;98.30;;;;;;4129853;28;20488;-84
2021/05/09 07:36:28;;;;;;;4.40;3.87;;;17.00;98.30;;;;;;4130458;28;20494;-84
2021/05/09 07:38:32;;;;;;;4.20;3.50;;;17.10;98.30;;;;;;4130534;28;20499;-84
2021/05/09 07:40:35;;;;;;;4.57;3.73;;;17.30;98.30;;;;;;4129887;28;20579;-84
2021/05/09 07:42:46;;;;;;;4.87;3.80;;;17.30;98.30;;;;;;4130878;28;20478;-84
2021/05/09 07:44:50;;;;;;;4.13;3.80;;;17.50;98.30;;;;;;4130749;28;20490;-84
2021/05/09 07:46:52;;;;;;;4.67;3.47;;;17.60;98.30;;;;;;4130837;28;20501;-84
2021/05/09 07:48:54;;;;;;;4.13;3.73;;;17.60;98.30;;;;;;4128828;28;20502;-84
2021/05/09 07:50:58;;;;;;;4.70;3.40;;;17.70;98.30;;;;;;4131377;28;20493;-84
2021/05/09 07:53:33;;;;;;;7.60;3.90;;;17.70;98.00;;;;;;4132008;28;20490;-85
2021/05/09 07:55:41;;;;;;;4.63;3.80;;;17.70;98.30;;;;;;4126988;28;21078;-85
2021/05/09 07:57:43;;;;;;;7.30;5.30;;;17.80;97.90;;;;;;4129879;28;20857;-84
2021/05/09 07:59:46;;;;;;;6.07;3.60;;;17.80;97.60;;;;;;4130738;28;20556;-85
2021/05/09 08:01:48;;;;;;;3.80;3.50;;;17.90;98.30;;;;;;4128230;28;20589;-84
2021/05/09 08:03:50;;;;;;;6.47;5.20;;;17.90;98.30;;;;;;4129288;28;20489;-85
2021/05/09 08:05:52;;;;;;;4.00;3.60;;;18.00;98.30;;;;;;4129868;28;20498;-85
2021/05/09 08:07:55;;;;;;;4.27;3.67;;;18.00;98.30;;;;;;4131160;28;20771;-85
2021/05/09 08:09:57;;;;;;;4.20;3.80;;;18.20;98.30;;;;;;4131194;28;20487;-85
2021/05/09 08:12:00;;;;;;;4.13;3.73;;;18.30;97.70;;;;;;4131479;28;20502;-85
2021/05/09 08:14:02;;;;;;;7.70;4.57;;;18.40;97.60;;;;;;4130109;28;20499;-85
2021/05/09 08:16:05;;;;;;;5.53;3.77;;;18.60;96.70;;;;;;4131438;28;20844;-85
2021/05/09 08:18:06;;;;;;;4.30;3.70;;;18.70;95.60;;;;;;4130804;28;20475;-85
2021/05/09 08:20:09;;;;;;;5.00;3.57;;;18.60;95.60;;;;;;4130531;28;20502;-85
2021/05/09 08:22:11;;;;;;;4.90;4.10;;;18.70;96.50;;;;;;4130356;28;20521;-85
2021/05/09 08:24:13;;;;;;;6.60;4.03;;;18.80;96.20;;;;;;4131395;28;20486;-85
2021/05/09 08:26:15;;;;;;;4.57;4.17;;;18.90;96.00;;;;;;4131001;28;20911;-85
2021/05/09 08:28:19;;;;;;;4.93;3.70;;;19.00;95.50;;;;;;4131137;28;20859;-85
2021/05/09 08:30:23;;;;;;;5.57;3.60;;;19.00;94.60;;;;;;4130917;28;20494;-85
2021/05/09 08:32:26;;;;;;;3.90;3.50;;;19.00;94.50;;;;;;4130773;28;20481;-85
2021/05/09 08:34:29;;;;;;;3.70;3.40;;;19.00;94.00;;;;;;4130611;28;20530;-85
2021/05/09 08:36:31;;;;;;;4.63;3.60;;;19.10;94.30;;;;;;4130826;28;20494;-85
2021/05/09 08:38:33;;;;;;;8.87;3.97;;;19.20;95.10;;;;;;4131198;28;20497;-85
2021/05/09 08:40:35;;;;;;;6.00;3.80;;;19.40;94.60;;;;;;4131886;28;20521;-85
2021/05/09 08:42:37;;;;;;;3.87;3.57;;;19.60;93.30;;;;;;4131880;28;20502;-85
2021/05/09 08:44:40;;;;;;;4.30;3.90;;;19.50;93.20;;;;;;4130829;28;20574;-85
2021/05/09 08:46:46;;;;;;;4.90;4.17;;;19.50;92.30;;;;;;4130379;28;20832;-85
2021/05/09 08:48:50;;;;;;;7.10;4.30;;;19.30;93.00;;;;;;4129651;28;20486;-85
2021/05/09 08:50:52;;;;;;;4.33;3.27;;;19.40;92.80;;;;;;4130984;28;20491;-84
2021/05/09 08:52:56;;;;;;;4.80;3.57;;;19.50;92.40;;;;;;4131745;28;20535;-85
2021/05/09 08:54:57;;;;;;;5.10;3.63;;;19.50;92.50;;;;;;4130106;28;21316;-85
2021/05/09 08:57:02;;;;;;;3.70;3.40;;;19.60;92.70;;;;;;4130053;28;20521;-85
2021/05/09 08:59:05;;;;;;;5.10;3.73;;;19.80;92.30;;;;;;4129817;28;20487;-86
2021/05/09 09:01:08;;;;;;;6.03;4.00;;;19.80;92.50;;;;;;4128254;28;20497;-84
2021/05/09 09:03:13;;;;;;;4.63;3.20;;;20.00;92.40;;;;;;4129469;28;20520;-84
2021/05/09 09:05:15;;;;;;;4.77;3.50;;;20.20;91.20;;;;;;4129503;28;20486;-85
2021/05/09 09:07:17;;;;;;;3.80;3.40;;;20.20;90.90;;;;;;4129232;28;20490;-85
2021/05/09 09:09:20;;;;;;;4.60;3.70;;;20.20;90.80;;;;;;4129348;28;20487;-86
2021/05/09 09:11:26;;;;;;;4.60;3.87;;;20.10;90.70;;;;;;4131044;28;20499;-84
2021/05/09 09:13:30;;;;;;;4.30;3.50;;;20.10;90.50;;;;;;4129370;28;20502;-86
2021/05/09 09:15:49;;;;;;;3.90;3.50;;;20.10;91.30;;;;;;4128983;28;20490;-85
2021/05/09 09:17:52;;;;;;;5.53;3.40;;;20.20;89.80;;;;;;4129564;28;20482;-86
2021/05/09 09:20:12;;;;;;;4.43;3.60;;;20.20;90.50;;;;;;4130305;28;20898;-86
2021/05/09 09:22:15;;;;;;;3.60;3.30;;;20.40;91.30;;;;;;4131436;28;20555;-86
2021/05/09 09:24:17;;;;;;;4.80;3.80;;;20.60;90.40;;;;;;4130488;28;20486;-86
2021/05/09 09:26:41;;;;;;;5.33;3.20;;;20.60;90.40;;;;;;4128956;28;20487;-86
2021/05/09 09:28:42;;;;;;;3.63;3.33;;;20.90;90.10;;;;;;4125600;28;20502;-86
2021/05/09 09:30:50;;;;;;;6.50;3.93;;;21.10;90.00;;;;;;4130603;28;20982;-86
2021/05/09 09:33:14;;;;;;;4.97;3.27;;;21.20;89.00;;;;;;4130303;28;20485;-86
2021/05/09 09:35:27;;;;;;;4.13;3.23;;;21.20;88.50;;;;;;4130586;28;20557;-86
2021/05/09 09:37:32;;;;;;;5.50;3.67;;;21.40;87.70;;;;;;4129385;28;20495;-83
2021/05/09 09:39:45;;;;;;;3.87;3.57;;;21.30;86.80;;;;;;4130693;28;21053;-83
2021/05/09 09:41:49;;;;;;;4.00;3.20;;;21.20;87.20;;;;;;4132306;28;20534;-83
2021/05/09 09:44:03;;;;;;;3.00;2.80;;;21.20;87.60;;;;;;4130288;28;20948;-82
2021/05/09 09:46:23;;;;;;;4.03;3.50;;;21.40;87.20;;;;;;4131017;28;20486;-82
2021/05/09 09:48:38;;;;;;;6.37;3.73;;;21.40;87.20;;;;;;4130632;28;21018;-82
2021/05/09 09:50:41;;;;;;;4.30;3.63;;;21.50;86.60;;;;;;4131604;28;20495;-82
2021/05/09 09:52:45;;;;;;;8.93;3.90;;;21.60;86.80;;;;;;4132319;28;20487;-81
2021/05/09 09:54:54;;;;;;;3.63;3.30;;;21.70;86.70;;;;;;4130608;28;20574;-81
2021/05/09 09:56:56;;;;;;;4.40;3.90;;;21.70;85.90;;;;;;4130228;28;20498;-82
2021/05/09 09:58:59;;;;;;;4.13;3.60;;;21.70;85.80;;;;;;4129800;28;20526;-82
2021/05/09 10:01:01;;;;;;;5.00;3.37;;;21.70;86.30;;;;;;4127449;28;20489;-83
2021/05/09 10:03:04;;;;;;;4.10;3.70;;;21.60;86.50;;;;;;4129064;28;20491;-81
2021/05/09 10:05:09;;;;;;;3.60;3.30;;;21.80;86.00;;;;;;4128608;28;20499;-81
2021/05/09 10:07:11;;;;;;;4.20;3.60;;;21.90;85.50;;;;;;4127755;28;20498;-82
2021/05/09 10:09:13;;;;;;;5.63;3.60;;;21.90;85.70;;;;;;4130392;28;20962;-82
2021/05/09 10:11:15;;;;;;;4.63;3.37;;;22.00;85.10;;;;;;4130131;28;20991;-80
2021/05/09 10:13:18;;;;;;;3.57;3.27;;;22.10;84.50;;;;;;4124927;28;20491;-84
2021/05/09 10:15:31;;;;;;;5.03;3.50;;;22.10;84.60;;;;;;4127891;28;20486;-81
2021/05/09 10:17:33;;;;;;;6.13;3.70;;;22.20;84.70;;;;;;4128045;28;20490;-81
2021/05/09 10:19:35;;;;;;;3.53;3.23;;;22.40;84.40;;;;;;4128668;28;20516;-80
2021/05/09 10:21:40;;;;;;;4.60;3.30;;;22.40;83.40;;;;;;4129575;28;20498;-81
2021/05/09 10:24:13;;;;;;;6.00;3.13;;;22.40;84.20;;;;;;4128858;28;20513;-81
2021/05/09 10:26:29;;;;;;;5.30;3.60;;;22.60;83.00;;;;;;4128070;28;20509;-81
2021/05/09 10:28:38;;;;;;;3.73;3.43;;;22.50;82.70;;;;;;4128722;28;20498;-81
2021/05/09 10:30:46;;;;;;;5.23;3.50;;;22.30;82.60;;;;;;4127823;28;20506;-82
2021/05/09 10:32:52;;;;;;;4.30;3.47;;;22.50;82.80;;;;;;4128900;28;20486;-83
2021/05/09 10:35:01;;;;;;;3.77;3.47;;;22.50;82.70;;;;;;4128035;28;20513;-81
2021/05/09 10:37:04;;;;;;;4.37;3.23;;;22.60;82.80;;;;;;4128562;28;20553;-80
2021/05/09 10:39:12;;;;;;;4.07;3.67;;;22.60;82.20;;;;;;4129064;28;20546;-82
2021/05/09 10:41:14;;;;;;;3.60;3.30;;;22.70;82.40;;;;;;4127393;28;20494;-82
2021/05/09 10:43:37;;;;;;;4.50;3.37;;;23.00;82.00;;;;;;4130062;28;20490;-82
2021/05/09 10:45:53;;;;;;;4.23;3.60;;;23.00;82.70;;;;;;4130208;28;20484;-81